createdAt,value
2018-07-24T00:01:48.107Z,99139.74
2018-07-24T00:04:16.723Z,99139.09
2018-07-24T00:06:45.075Z,99135.16
2018-07-24T00:09:13.211Z,99135.81
2018-07-24T00:11:41.859Z,99136.41
2018-07-24T00:14:10.189Z,99134.97
2018-07-24T00:16:38.620Z,99135.55
2018-07-24T00:19:06.999Z,99137.91
2018-07-24T00:21:35.630Z,99133.83
2018-07-24T00:24:04.330Z,99132.09
2018-07-24T00:26:32.371Z,99129.81
2018-07-24T00:29:01.387Z,99122.78
2018-07-24T00:31:29.640Z,99121.83
2018-07-24T00:33:58.007Z,99118.39
2018-07-24T00:36:26.419Z,99123.73
2018-07-24T00:38:55.058Z,99115.84
2018-07-24T00:41:23.452Z,99123.19
2018-07-24T00:43:51.924Z,99124.86
2018-07-24T00:46:20.275Z,99127.92
2018-07-24T00:48:48.576Z,99121.50
2018-07-24T00:51:17.071Z,99121.95
2018-07-24T00:53:45.283Z,99126.80
2018-07-24T00:56:13.704Z,99129.56
2018-07-24T00:58:42.530Z,99119.45
2018-07-24T01:01:10.911Z,99122.18
2018-07-24T01:03:39.391Z,99126.06
2018-07-24T01:06:07.813Z,99129.69
2018-07-24T01:08:36.499Z,99124.05
2018-07-24T01:11:05.000Z,99127.34
2018-07-24T01:13:33.267Z,99093.31
2018-07-24T01:16:01.720Z,99133.25
2018-07-24T01:18:30.336Z,99123.58
2018-07-24T01:20:58.733Z,99129.99
2018-07-24T01:23:27.444Z,99126.42
2018-07-24T01:25:56.128Z,99128.59
2018-07-24T01:28:24.419Z,99121.97
2018-07-24T01:30:52.870Z,99108.03
2018-07-24T01:33:21.339Z,99123.95
2018-07-24T01:35:49.515Z,99129.09
2018-07-24T01:38:17.870Z,99126.67
2018-07-24T01:40:46.567Z,99124.98
2018-07-24T01:43:15.133Z,99130.78
2018-07-24T01:45:43.544Z,99128.38
2018-07-24T01:48:11.999Z,99131.11
2018-07-24T01:50:40.664Z,99134.83
2018-07-24T01:53:09.022Z,99126.59
2018-07-24T01:55:37.040Z,99128.65
2018-07-24T01:58:05.499Z,99132.52
2018-07-24T02:00:33.955Z,99125.03
2018-07-24T02:03:02.259Z,99134.66
2018-07-24T02:05:30.775Z,99134.55
2018-07-24T02:07:59.083Z,99135.67
2018-07-24T02:10:27.804Z,99131.73
2018-07-24T02:12:56.089Z,99131.27
2018-07-24T02:15:24.371Z,99134.52
2018-07-24T02:17:53.075Z,99116.86
2018-07-24T02:20:21.735Z,99129.52
2018-07-24T02:22:50.197Z,99130.83
2018-07-24T02:25:18.546Z,99128.52
2018-07-24T02:27:46.703Z,99123.57
2018-07-24T02:30:15.194Z,99125.41
2018-07-24T02:32:43.479Z,99104.70
2018-07-24T02:35:11.850Z,99120.62
2018-07-24T02:37:40.515Z,99113.64
2018-07-24T02:40:09.270Z,99117.05
2018-07-24T02:42:37.560Z,99121.84
2018-07-24T02:45:06.175Z,99123.68
2018-07-24T02:47:34.726Z,99120.38
2018-07-24T02:50:03.148Z,99111.30
2018-07-24T02:52:33.061Z,99107.75
2018-07-24T02:55:02.959Z,99113.93
2018-07-24T02:57:32.672Z,99108.44
2018-07-24T03:00:03.045Z,99115.00
2018-07-24T03:02:31.964Z,99118.08
2018-07-24T03:05:00.190Z,99117.59
2018-07-24T03:07:28.600Z,99117.50
2018-07-24T03:09:57.412Z,99111.27
2018-07-24T03:12:25.820Z,99119.21
2018-07-24T03:14:54.225Z,99120.62
2018-07-24T03:17:23.075Z,99110.38
2018-07-24T03:19:51.483Z,99113.47
2018-07-24T03:22:19.755Z,99113.72
2018-07-24T03:24:48.303Z,99082.84
2018-07-24T03:27:16.748Z,99099.79
2018-07-24T03:29:45.084Z,99087.75
2018-07-24T03:32:13.686Z,99114.70
2018-07-24T03:34:41.961Z,99115.54
2018-07-24T03:37:10.483Z,99113.55
2018-07-24T03:39:39.622Z,99115.00
2018-07-24T03:42:08.077Z,99118.46
2018-07-24T03:44:36.783Z,99121.66
2018-07-24T03:47:05.683Z,99119.73
2018-07-24T03:49:33.882Z,99118.58
2018-07-24T03:52:02.039Z,99117.84
2018-07-24T03:54:30.744Z,99119.88
2018-07-24T03:56:59.141Z,99115.66
2018-07-24T03:59:27.651Z,99119.01
2018-07-24T04:01:55.988Z,99115.57
2018-07-24T04:04:24.864Z,99122.13
2018-07-24T04:06:53.167Z,99109.44
2018-07-24T04:09:21.645Z,99118.05
2018-07-24T04:11:50.043Z,99118.58
2018-07-24T04:14:18.509Z,99123.05
2018-07-24T04:16:47.436Z,99119.36
2018-07-24T04:19:15.932Z,99123.24
2018-07-24T04:21:44.337Z,99126.34
2018-07-24T04:24:13.338Z,99117.91
2018-07-24T04:26:41.658Z,99128.78
2018-07-24T04:29:09.960Z,99131.25
2018-07-24T04:31:38.390Z,99126.98
2018-07-24T04:34:06.885Z,99121.68
2018-07-24T04:36:35.176Z,99127.70
2018-07-24T04:39:05.452Z,99123.59
2018-07-24T04:41:33.795Z,99125.00
2018-07-24T04:44:02.239Z,99123.23
2018-07-24T04:46:30.716Z,99130.38
2018-07-24T04:48:59.167Z,99125.09
2018-07-24T04:51:27.251Z,99131.58
2018-07-24T04:53:55.705Z,99122.97
2018-07-24T04:56:24.081Z,99132.25
2018-07-24T04:58:52.708Z,99133.85
2018-07-24T05:01:21.414Z,99136.51
2018-07-24T05:03:49.750Z,99129.66
2018-07-24T05:06:18.195Z,99131.51
2018-07-24T05:08:47.149Z,99133.39
2018-07-24T05:11:15.579Z,99135.62
2018-07-24T05:13:43.894Z,99125.42
2018-07-24T05:16:12.779Z,99131.56
2018-07-24T05:18:41.467Z,99143.12
2018-07-24T05:21:10.053Z,99133.83
2018-07-24T05:23:38.712Z,99138.77
2018-07-24T05:26:07.089Z,99148.92
2018-07-24T05:28:35.488Z,99148.95
2018-07-24T05:31:04.183Z,99153.11
2018-07-24T05:33:32.639Z,99148.96
2018-07-24T05:36:00.958Z,99139.24
2018-07-24T05:38:30.032Z,99157.97
2018-07-24T05:40:58.515Z,99165.63
2018-07-24T05:43:26.703Z,99160.89
2018-07-24T05:45:55.646Z,99160.03
2018-07-24T05:48:24.259Z,99160.44
2018-07-24T05:50:54.319Z,99162.25
2018-07-24T05:53:23.595Z,99167.20
2018-07-24T05:55:51.688Z,99163.65
2018-07-24T05:58:20.176Z,99160.94
2018-07-24T06:00:49.355Z,99156.16
2018-07-24T06:03:17.659Z,99144.30
2018-07-24T06:05:45.693Z,99152.72
2018-07-24T06:08:14.582Z,99148.73
2018-07-24T06:10:43.086Z,99146.29
2018-07-24T06:13:11.271Z,99146.84
2018-07-24T06:15:39.609Z,99147.31
2018-07-24T06:18:07.851Z,99144.06
2018-07-24T06:20:35.896Z,99148.83
2018-07-24T06:23:04.297Z,99151.80
2018-07-24T06:25:32.422Z,99147.61
2018-07-24T06:28:00.699Z,99144.44
2018-07-24T06:30:29.031Z,99142.30
2018-07-24T06:32:57.428Z,99135.22
2018-07-24T06:35:26.976Z,99129.55
2018-07-24T06:37:57.573Z,99134.66
2018-07-24T06:40:26.324Z,99130.98
2018-07-24T06:42:54.709Z,99126.94
2018-07-24T06:45:23.228Z,99133.88
2018-07-24T06:47:51.247Z,99129.78
2018-07-24T06:50:19.435Z,99106.31
2018-07-24T06:52:47.985Z,99125.31
2018-07-24T06:55:16.284Z,99122.83
2018-07-24T06:57:45.087Z,99130.30
2018-07-24T07:00:13.639Z,99112.09
2018-07-24T07:02:41.995Z,99107.28
2018-07-24T07:05:10.412Z,99106.59
2018-07-24T07:07:38.616Z,99116.86
2018-07-24T07:10:06.972Z,99115.36
2018-07-24T07:12:35.572Z,99116.34
2018-07-24T07:15:04.224Z,99092.83
2018-07-24T07:17:32.338Z,99109.05
2018-07-24T07:20:00.777Z,99106.88
2018-07-24T07:22:28.848Z,99115.53
2018-07-24T07:24:57.222Z,99108.48
2018-07-24T07:27:25.343Z,99106.86
2018-07-24T07:29:53.459Z,99101.16
2018-07-24T07:32:21.553Z,99076.58
2018-07-24T07:34:49.507Z,99101.11
2018-07-24T07:37:17.928Z,99094.94
2018-07-24T07:39:45.986Z,99095.13
2018-07-24T07:42:14.112Z,99095.80
2018-07-24T07:44:42.552Z,99089.35
2018-07-24T07:47:10.986Z,99092.03
2018-07-24T07:49:39.087Z,99100.17
2018-07-24T07:52:07.911Z,99093.27
2018-07-24T07:54:36.590Z,99080.98
2018-07-24T07:57:04.608Z,99078.35
2018-07-24T07:59:32.789Z,99095.78
2018-07-24T08:02:01.313Z,99084.84
2018-07-24T08:04:29.715Z,99083.50
2018-07-24T08:06:58.191Z,99088.48
2018-07-24T08:09:27.096Z,99088.69
2018-07-24T08:11:55.756Z,99089.41
2018-07-24T08:14:24.415Z,99098.06
2018-07-24T08:16:53.128Z,99081.28
2018-07-24T08:19:21.707Z,99085.63
2018-07-24T08:21:51.309Z,99084.45
2018-07-24T08:24:20.065Z,99081.63
2018-07-24T08:26:48.972Z,99079.50
2018-07-24T08:29:17.339Z,99083.00
2018-07-24T08:31:45.446Z,99082.48
2018-07-24T08:34:13.525Z,99070.66
2018-07-24T08:36:41.623Z,99074.64
2018-07-24T08:39:12.475Z,99076.68
2018-07-24T08:41:41.726Z,99077.55
2018-07-24T08:44:10.156Z,99070.80
2018-07-24T08:46:38.498Z,99066.88
2018-07-24T08:49:07.711Z,99065.08
2018-07-24T08:51:37.275Z,99012.97
2018-07-24T08:54:06.723Z,99064.11
2018-07-24T08:56:39.201Z,99067.23
2018-07-24T08:59:07.878Z,99051.23
2018-07-24T09:01:36.852Z,99076.06
2018-07-24T09:04:05.673Z,99076.33
2018-07-24T09:06:38.207Z,99060.12
2018-07-24T09:09:10.253Z,99065.67
2018-07-24T09:11:40.810Z,99050.66
2018-07-24T09:14:21.508Z,99023.22
2018-07-24T09:16:52.869Z,99048.36
2018-07-24T09:19:22.460Z,99044.20
2018-07-24T09:21:51.106Z,99058.58
2018-07-24T09:24:19.886Z,99051.06
2018-07-24T09:26:48.478Z,99053.43
2018-07-24T09:29:24.495Z,99048.64
2018-07-24T09:31:58.062Z,99049.86
2018-07-24T09:34:29.236Z,99055.28
2018-07-24T09:37:01.001Z,99057.34
2018-07-24T09:39:41.985Z,99046.19
2018-07-24T09:42:16.018Z,99043.00
2018-07-24T09:44:45.726Z,99008.30
2018-07-24T09:47:18.878Z,99042.81
2018-07-24T09:49:54.830Z,99038.12
2018-07-24T09:52:30.569Z,99032.13
2018-07-24T09:55:00.727Z,99044.36
2018-07-24T09:57:29.980Z,99044.54
2018-07-24T09:59:59.489Z,99054.22
2018-07-24T10:02:38.427Z,99015.59
2018-07-24T10:05:07.115Z,99011.16
2018-07-24T10:07:36.803Z,99036.68
2018-07-24T10:10:07.332Z,99013.92
2018-07-24T10:12:35.796Z,99029.95
2018-07-24T10:15:05.575Z,99036.27
2018-07-24T10:17:34.837Z,99024.43
2018-07-24T10:20:03.273Z,99028.30
2018-07-24T10:22:35.097Z,99022.36
2018-07-24T10:25:03.489Z,99025.25
2018-07-24T10:27:31.561Z,99029.83
2018-07-24T10:30:01.612Z,98994.23
2018-07-24T10:32:30.208Z,99018.09
2018-07-24T10:34:59.621Z,99023.80
2018-07-24T10:37:32.121Z,99012.96
2018-07-24T10:40:00.956Z,98997.52
2018-07-24T10:42:31.837Z,98988.03
2018-07-24T10:44:59.970Z,99006.39
2018-07-24T10:47:28.803Z,98990.39
2018-07-24T10:49:58.114Z,98998.88
2018-07-24T10:52:27.002Z,98987.33
2018-07-24T10:54:55.612Z,98988.04
2018-07-24T10:57:25.323Z,98967.42
2018-07-24T10:59:58.796Z,98991.88
2018-07-24T11:02:28.235Z,98977.03
2018-07-24T11:05:02.328Z,98963.50
2018-07-24T11:07:33.633Z,98936.06
2018-07-24T11:10:01.794Z,98980.43
2018-07-24T11:12:29.921Z,98974.84
2018-07-24T11:14:58.837Z,98945.11
2018-07-24T11:17:28.646Z,98954.23
2018-07-24T11:19:57.187Z,98952.36
2018-07-24T11:22:28.983Z,98940.83
2018-07-24T11:25:00.561Z,98963.46
2018-07-24T11:27:29.384Z,98965.37
2018-07-24T11:29:58.946Z,98949.13
2018-07-24T11:32:27.469Z,98955.84
2018-07-24T11:34:59.035Z,98954.27
2018-07-24T11:37:27.241Z,98957.05
2018-07-24T11:39:55.515Z,98941.74
2018-07-24T11:42:24.791Z,98965.89
2018-07-24T11:44:55.342Z,98928.89
2018-07-24T11:47:24.451Z,98942.46
2018-07-24T11:49:52.519Z,98938.44
2018-07-24T11:52:21.303Z,98944.11
2018-07-24T11:54:49.839Z,98946.14
2018-07-24T11:57:22.760Z,98935.89
2018-07-24T11:59:51.067Z,98931.13
2018-07-24T12:02:19.582Z,98924.44
2018-07-24T12:04:48.194Z,98879.67
2018-07-24T12:07:16.303Z,98926.94
2018-07-24T12:09:47.185Z,98905.44
2018-07-24T12:12:16.825Z,98919.53
2018-07-24T12:14:46.149Z,98887.68
2018-07-24T12:17:14.303Z,98913.64
2018-07-24T12:19:43.434Z,98891.23
2018-07-24T12:22:12.685Z,98912.52
2018-07-24T12:24:52.517Z,98906.84
2018-07-24T12:27:22.169Z,98899.31
2018-07-24T12:29:51.886Z,98893.36
2018-07-24T12:32:20.632Z,98903.34
2018-07-24T12:34:49.474Z,98908.31
2018-07-24T12:37:17.535Z,98907.07
2018-07-24T12:39:45.696Z,98902.44
2018-07-24T12:42:13.866Z,98902.04
2018-07-24T12:44:42.382Z,98863.69
2018-07-24T12:47:11.147Z,98887.02
2018-07-24T12:49:40.184Z,98894.04
2018-07-24T12:52:08.878Z,98892.98
2018-07-24T12:54:37.670Z,98893.09
2018-07-24T12:57:05.799Z,98883.05
2018-07-24T12:59:35.365Z,98884.69
2018-07-24T13:02:05.300Z,98867.86
2018-07-24T13:04:33.564Z,98870.72
2018-07-24T13:07:08.019Z,98870.70
2018-07-24T13:09:37.454Z,98868.41
2018-07-24T13:12:06.675Z,98881.25
2018-07-24T13:14:34.939Z,98866.23
2018-07-24T13:17:03.103Z,98868.48
2018-07-24T13:19:31.605Z,98864.10
2018-07-24T13:21:59.820Z,98878.00
2018-07-24T13:24:27.900Z,98870.44
2018-07-24T13:26:56.267Z,98869.34
2018-07-24T13:29:26.468Z,98872.81
2018-07-24T13:31:54.809Z,98863.34
2018-07-24T13:34:23.390Z,98866.41
2018-07-24T13:36:54.411Z,98833.55
2018-07-24T13:39:25.953Z,98845.92
2018-07-24T13:41:57.526Z,98862.84
2018-07-24T13:44:26.289Z,98835.11
2018-07-24T13:47:09.679Z,98834.98
2018-07-24T13:49:40.945Z,98854.12
2018-07-24T13:52:12.275Z,98853.05
2018-07-24T13:54:42.121Z,98849.66
2018-07-24T13:57:12.439Z,98848.83
2018-07-24T13:59:40.940Z,98841.93
2018-07-24T14:02:09.420Z,98847.11
2018-07-24T14:04:38.708Z,98837.64
2018-07-24T14:07:08.170Z,98840.36
2018-07-24T14:09:36.370Z,98831.38
2018-07-24T14:12:04.722Z,98846.02
2018-07-24T14:14:34.221Z,98842.02
2018-07-24T14:17:05.135Z,98832.63
2018-07-24T14:19:46.649Z,98806.58
2018-07-24T14:22:16.310Z,98824.39
2018-07-24T14:24:45.362Z,98796.89
2018-07-24T14:27:14.211Z,98827.37
2018-07-24T14:29:42.894Z,98822.98
2018-07-24T14:32:12.119Z,98826.34
2018-07-24T14:34:44.254Z,98823.41
2018-07-24T14:37:12.976Z,98815.98
2018-07-24T14:39:42.912Z,98806.73
2018-07-24T14:42:14.144Z,98795.86
2018-07-24T14:44:43.105Z,98800.02
2018-07-24T14:47:11.379Z,98803.91
2018-07-24T14:49:39.899Z,98798.16
2018-07-24T14:52:08.401Z,98799.81
2018-07-24T14:54:36.946Z,98811.06
2018-07-24T14:57:05.366Z,98799.02
2018-07-24T14:59:34.079Z,98804.93
2018-07-24T15:02:03.415Z,98795.69
2018-07-24T15:04:31.583Z,98792.33
2018-07-24T15:06:59.961Z,98798.23
2018-07-24T15:09:29.988Z,98798.23
2018-07-24T15:11:59.075Z,98800.12
2018-07-24T15:14:30.156Z,98792.17
2018-07-24T15:16:59.837Z,98796.66
2018-07-24T15:19:28.481Z,98786.94
2018-07-24T15:21:57.366Z,98786.56
2018-07-24T15:24:27.181Z,98787.38
2018-07-24T15:26:55.380Z,98790.15
2018-07-24T15:29:26.379Z,98793.36
2018-07-24T15:31:55.944Z,98784.23
2018-07-24T15:34:24.187Z,98785.78
2018-07-24T15:36:52.703Z,98747.20
2018-07-24T15:39:21.265Z,98774.52
2018-07-24T15:41:49.837Z,98781.66
2018-07-24T15:44:18.641Z,98770.47
2018-07-24T15:46:46.992Z,98767.73
2018-07-24T15:49:15.388Z,98768.06
2018-07-24T15:51:43.923Z,98767.48
2018-07-24T15:54:12.062Z,98771.59
2018-07-24T15:56:40.288Z,98759.27
2018-07-24T15:59:08.831Z,98766.82
2018-07-24T16:01:37.093Z,98762.52
2018-07-24T16:04:07.019Z,98762.92
2018-07-24T16:06:35.820Z,98764.02
2018-07-24T16:09:07.020Z,98770.53
2018-07-24T16:11:35.435Z,98769.05
2018-07-24T16:14:03.667Z,98763.93
2018-07-24T16:16:32.334Z,98771.12
2018-07-24T16:19:02.101Z,98767.36
2018-07-24T16:21:30.308Z,98752.73
2018-07-24T16:23:59.012Z,98770.31
2018-07-24T16:26:27.844Z,98742.52
2018-07-24T16:28:55.994Z,98765.20
2018-07-24T16:31:25.223Z,98767.04
2018-07-24T16:33:53.351Z,98770.66
2018-07-24T16:36:21.844Z,98770.44
2018-07-24T16:38:50.149Z,98767.20
2018-07-24T16:41:18.490Z,98777.00
2018-07-24T16:43:46.975Z,98771.41
2018-07-24T16:46:15.388Z,98768.23
2018-07-24T16:48:43.522Z,98766.19
2018-07-24T16:51:11.624Z,98753.97
2018-07-24T16:53:40.018Z,98757.77
2018-07-24T16:56:09.377Z,98767.10
2018-07-24T16:58:37.599Z,98768.01
2018-07-24T17:01:05.753Z,98767.06
2018-07-24T17:03:34.288Z,98766.44
2018-07-24T17:06:02.699Z,98756.29
2018-07-24T17:08:31.217Z,98742.91
2018-07-24T17:10:59.346Z,98760.78
2018-07-24T17:13:28.105Z,98766.21
2018-07-24T17:15:56.513Z,98765.20
2018-07-24T17:18:24.616Z,98768.87
2018-07-24T17:20:52.875Z,98766.77
2018-07-24T17:23:20.919Z,98765.70
2018-07-24T17:25:50.012Z,98773.34
2018-07-24T17:28:18.394Z,98763.33
2018-07-24T17:30:46.505Z,98758.16
2018-07-24T17:33:14.581Z,98761.06
2018-07-24T17:35:43.039Z,98776.98
2018-07-24T17:38:11.229Z,98750.27
2018-07-24T17:40:39.661Z,98758.12
2018-07-24T17:43:07.694Z,98761.59
2018-07-24T17:45:35.760Z,98769.42
2018-07-24T17:48:04.441Z,98759.28
2018-07-24T17:50:32.680Z,98776.74
2018-07-24T17:53:01.021Z,98770.39
2018-07-24T17:55:31.103Z,98777.07
2018-07-24T17:57:59.540Z,98786.69
2018-07-24T18:00:28.782Z,98775.86
2018-07-24T18:02:57.192Z,98777.58
2018-07-24T18:05:25.300Z,98777.88
2018-07-24T18:07:53.838Z,98775.78
2018-07-24T18:10:21.953Z,98783.09
2018-07-24T18:12:50.142Z,98776.88
2018-07-24T18:15:18.330Z,98778.33
2018-07-24T18:17:46.657Z,98788.05
2018-07-24T18:20:14.982Z,98790.53
2018-07-24T18:22:43.669Z,98791.68
2018-07-24T18:25:11.794Z,98780.88
2018-07-24T18:27:40.057Z,98800.30
2018-07-24T18:30:08.355Z,98785.98
2018-07-24T18:32:36.790Z,98797.41
2018-07-24T18:35:05.019Z,98793.77
2018-07-24T18:37:34.761Z,98780.84
2018-07-24T18:40:08.724Z,98766.71
2018-07-24T18:42:41.682Z,98798.72
2018-07-24T18:45:11.140Z,98791.13
2018-07-24T18:47:39.531Z,98787.16
2018-07-24T18:50:07.783Z,98796.59
2018-07-24T18:52:36.905Z,98797.44
2018-07-24T18:55:05.216Z,98798.27
2018-07-24T18:57:34.071Z,98797.41
2018-07-24T19:00:07.803Z,98783.73
2018-07-24T19:02:38.394Z,98808.02
2018-07-24T19:05:15.239Z,98788.68
2018-07-24T19:07:43.787Z,98805.78
2018-07-24T19:10:13.126Z,98796.41
2018-07-24T19:12:41.848Z,98806.91
2018-07-24T19:15:11.154Z,98789.79
2018-07-24T19:17:39.531Z,98798.11
2018-07-24T19:20:08.184Z,98806.83
2018-07-24T19:22:36.524Z,98822.10
2018-07-24T19:25:05.633Z,98817.58
2018-07-24T19:27:33.875Z,98817.30
2018-07-24T19:30:07.133Z,98827.20
2018-07-24T19:32:35.960Z,98829.99
2018-07-24T19:35:05.880Z,98811.84
2018-07-24T19:37:37.341Z,98824.78
2018-07-24T19:40:06.182Z,98831.30
2018-07-24T19:42:36.920Z,98829.72
2018-07-24T19:45:07.744Z,98816.45
2018-07-24T19:47:36.967Z,98831.16
2018-07-24T19:50:08.379Z,98822.48
2018-07-24T19:52:39.501Z,98831.92
2018-07-24T19:55:07.896Z,98840.30
2018-07-24T19:57:40.031Z,98842.00
2018-07-24T20:00:09.329Z,98837.31
2018-07-24T20:02:38.689Z,98763.52
2018-07-24T20:05:14.900Z,98838.88
2018-07-24T20:07:43.064Z,98833.72
2018-07-24T20:10:11.490Z,98842.45
2018-07-24T20:12:39.992Z,98847.53
2018-07-24T20:15:08.070Z,98830.66
2018-07-24T20:17:36.935Z,98821.95
2018-07-24T20:20:05.789Z,98839.98
2018-07-24T20:22:34.360Z,98838.79
2018-07-24T20:25:03.143Z,98841.05
2018-07-24T20:27:31.232Z,98844.90
2018-07-24T20:29:59.515Z,98837.53
2018-07-24T20:32:28.141Z,98841.95
2018-07-24T20:34:56.925Z,98839.10
2018-07-24T20:37:32.223Z,98811.20
2018-07-24T20:40:03.231Z,98826.16
2018-07-24T20:42:32.788Z,98844.13
2018-07-24T20:45:02.579Z,98839.99
2018-07-24T20:47:31.965Z,98841.90
2018-07-24T20:50:02.518Z,98825.89
2018-07-24T20:52:32.434Z,98840.17
2018-07-24T20:55:01.625Z,98832.09
2018-07-24T20:57:31.308Z,98813.20
2018-07-24T21:00:00.714Z,98837.33
2018-07-24T21:02:30.461Z,98839.44
2018-07-24T21:04:59.961Z,98833.63
2018-07-24T21:07:34.109Z,98832.41
2018-07-24T21:10:10.559Z,98831.38
2018-07-24T21:12:39.689Z,98822.47
2018-07-24T21:15:08.197Z,98822.04
2018-07-24T21:17:37.482Z,98829.32
2018-07-24T21:20:05.746Z,98826.48
2018-07-24T21:22:33.890Z,98835.87
2018-07-24T21:25:03.286Z,98842.38
2018-07-24T21:27:32.471Z,98830.64
2018-07-24T21:30:00.631Z,98833.40
2018-07-24T21:32:29.003Z,98832.23
2018-07-24T21:34:57.431Z,98837.92
2018-07-24T21:37:25.793Z,98841.80
2018-07-24T21:39:53.975Z,98836.25
2018-07-24T21:42:23.130Z,98841.36
2018-07-24T21:44:51.618Z,98847.41
2018-07-24T21:47:19.780Z,98813.02
2018-07-24T21:49:48.559Z,98856.46
2018-07-24T21:52:17.004Z,98839.70
2018-07-24T21:54:45.247Z,98845.55
2018-07-24T21:57:14.232Z,98847.08
2018-07-24T21:59:43.141Z,98845.93
2018-07-24T22:02:12.101Z,98837.34
2018-07-24T22:04:40.553Z,98844.60
2018-07-24T22:07:08.584Z,98869.55
2018-07-24T22:09:36.591Z,98841.13
2018-07-24T22:12:05.011Z,98847.67
2018-07-24T22:14:34.037Z,98861.05
2018-07-24T22:17:03.025Z,98875.44
2018-07-24T22:19:31.348Z,98871.61
2018-07-24T22:21:59.586Z,98872.98
2018-07-24T22:24:28.083Z,98868.27
2018-07-24T22:26:56.684Z,98847.70
2018-07-24T22:29:25.323Z,98869.52
2018-07-24T22:31:54.040Z,98872.09
2018-07-24T22:34:22.338Z,98870.95
2018-07-24T22:36:51.406Z,98872.77
2018-07-24T22:39:19.468Z,98875.47
2018-07-24T22:41:47.746Z,98881.25
2018-07-24T22:44:16.097Z,98875.23
2018-07-24T22:46:44.195Z,98878.47
2018-07-24T22:49:12.615Z,98872.90
2018-07-24T22:51:40.703Z,98880.48
2018-07-24T22:54:09.596Z,98880.59
2018-07-24T22:56:37.951Z,98882.21
2018-07-24T22:59:05.988Z,98887.87
2018-07-24T23:01:34.090Z,98881.67
2018-07-24T23:04:03.019Z,98886.89
2018-07-24T23:06:31.512Z,98890.47
2018-07-24T23:09:01.805Z,98859.70
2018-07-24T23:11:30.580Z,98890.70
2018-07-24T23:13:59.187Z,98883.69
2018-07-24T23:16:27.300Z,98880.30
2018-07-24T23:18:55.351Z,98870.21
2018-07-24T23:21:23.806Z,98882.30
2018-07-24T23:23:52.219Z,98883.08
2018-07-24T23:26:20.771Z,98873.25
2018-07-24T23:28:48.815Z,98877.93
2018-07-24T23:31:16.957Z,98875.94
2018-07-24T23:33:45.699Z,98869.02
2018-07-24T23:36:14.789Z,98872.87
2018-07-24T23:38:43.093Z,98874.30
2018-07-24T23:41:11.464Z,98867.92
2018-07-24T23:43:39.936Z,98848.67
2018-07-24T23:46:08.870Z,98869.97
2018-07-24T23:48:38.161Z,98861.12
2018-07-24T23:51:06.654Z,98854.34
2018-07-24T23:53:35.245Z,98873.72
2018-07-24T23:56:03.719Z,98855.88
2018-07-24T23:58:32.128Z,98880.36
